sensor_id;sensor_type;location;lat;lon;timestamp;P1;durP1;ratioP1;P2;durP2;ratioP2
1885;SDS011;943;51.568;6.998;2023-06-14T00:02:30;7.17;;;5.20;;
1885;SDS011;943;51.568;6.998;2023-06-14T00:04:58;6.17;;;5.57;;
1885;SDS011;943;51.568;6.998;2023-06-14T00:07:35;6.97;;;6.03;;
1885;SDS011;943;51.568;6.998;2023-06-14T00:10:11;8.00;;;6.10;;
1885;SDS011;943;51.568;6.998;2023-06-14T00:12:42;7.83;;;5.37;;
1885;SDS011;943;51.568;6.998;2023-06-14T00:15:10;9.80;;;6.07;;
1885;SDS011;943;51.568;6.998;2023-06-14T00:17:38;7.00;;;5.40;;
1885;SDS011;943;51.568;6.998;2023-06-14T00:20:06;7.53;;;5.30;;
1885;SDS011;943;51.568;6.998;2023-06-14T00:22:36;6.33;;;4.83;;
1885;SDS011;943;51.568;6.998;2023-06-14T00:25:05;7.80;;;4.90;;
1885;SDS011;943;51.568;6.998;2023-06-14T00:27:54;7.07;;;4.90;;
1885;SDS011;943;51.568;6.998;2023-06-14T00:30:24;5.20;;;4.37;;
1885;SDS011;943;51.568;6.998;2023-06-14T00:32:57;9.07;;;5.17;;
1885;SDS011;943;51.568;6.998;2023-06-14T00:35:28;7.93;;;4.40;;
1885;SDS011;943;51.568;6.998;2023-06-14T00:37:56;5.93;;;4.33;;
1885;SDS011;943;51.568;6.998;2023-06-14T00:40:24;7.73;;;4.93;;
1885;SDS011;943;51.568;6.998;2023-06-14T00:42:52;9.53;;;5.40;;
1885;SDS011;943;51.568;6.998;2023-06-14T00:45:21;8.43;;;4.67;;
1885;SDS011;943;51.568;6.998;2023-06-14T00:47:49;7.57;;;4.10;;
1885;SDS011;943;51.568;6.998;2023-06-14T00:50:23;5.17;;;4.30;;
1885;SDS011;943;51.568;6.998;2023-06-14T00:52:54;6.33;;;3.90;;
1885;SDS011;943;51.568;6.998;2023-06-14T00:55:25;6.40;;;4.67;;
1885;SDS011;943;51.568;6.998;2023-06-14T00:57:54;8.17;;;4.70;;
1885;SDS011;943;51.568;6.998;2023-06-14T01:00:23;7.93;;;4.40;;
1885;SDS011;943;51.568;6.998;2023-06-14T01:02:54;8.13;;;4.73;;
1885;SDS011;943;51.568;6.998;2023-06-14T01:05:22;7.73;;;4.50;;
1885;SDS011;943;51.568;6.998;2023-06-14T01:13:45;6.30;;;4.00;;
1885;SDS011;943;51.568;6.998;2023-06-14T01:16:17;10.90;;;5.10;;
1885;SDS011;943;51.568;6.998;2023-06-14T01:18:46;6.37;;;4.57;;
1885;SDS011;943;51.568;6.998;2023-06-14T01:21:25;7.33;;;4.50;;
1885;SDS011;943;51.568;6.998;2023-06-14T01:23:55;9.40;;;3.77;;
1885;SDS011;943;51.568;6.998;2023-06-14T01:26:25;11.57;;;4.57;;
1885;SDS011;943;51.568;6.998;2023-06-14T01:28:58;8.13;;;4.27;;
1885;SDS011;943;51.568;6.998;2023-06-14T01:31:27;6.23;;;3.40;;
1885;SDS011;943;51.568;6.998;2023-06-14T01:33:56;10.70;;;5.10;;
1885;SDS011;943;51.568;6.998;2023-06-14T01:36:24;5.80;;;3.97;;
1885;SDS011;943;51.568;6.998;2023-06-14T01:38:56;5.10;;;3.57;;
1885;SDS011;943;51.568;6.998;2023-06-14T01:41:28;7.87;;;4.03;;
1885;SDS011;943;51.568;6.998;2023-06-14T01:43:58;5.80;;;4.80;;
1885;SDS011;943;51.568;6.998;2023-06-14T01:46:28;8.37;;;4.53;;
1885;SDS011;943;51.568;6.998;2023-06-14T01:48:56;7.20;;;4.43;;
1885;SDS011;943;51.568;6.998;2023-06-14T01:51:25;5.40;;;4.33;;
1885;SDS011;943;51.568;6.998;2023-06-14T01:53:53;4.50;;;4.07;;
1885;SDS011;943;51.568;6.998;2023-06-14T01:56:22;5.30;;;4.13;;
1885;SDS011;943;51.568;6.998;2023-06-14T01:58:50;6.77;;;4.07;;
1885;SDS011;943;51.568;6.998;2023-06-14T02:01:19;9.63;;;4.37;;
1885;SDS011;943;51.568;6.998;2023-06-14T02:03:48;7.27;;;5.07;;
1885;SDS011;943;51.568;6.998;2023-06-14T02:06:17;8.17;;;3.97;;
1885;SDS011;943;51.568;6.998;2023-06-14T02:08:45;4.67;;;3.90;;
1885;SDS011;943;51.568;6.998;2023-06-14T02:11:13;8.83;;;5.00;;
1885;SDS011;943;51.568;6.998;2023-06-14T02:13:42;7.23;;;4.13;;
1885;SDS011;943;51.568;6.998;2023-06-14T02:16:10;10.50;;;4.50;;
1885;SDS011;943;51.568;6.998;2023-06-14T02:18:38;5.87;;;4.00;;
1885;SDS011;943;51.568;6.998;2023-06-14T02:21:06;6.10;;;3.73;;
1885;SDS011;943;51.568;6.998;2023-06-14T02:23:34;6.57;;;3.73;;
1885;SDS011;943;51.568;6.998;2023-06-14T02:26:01;5.83;;;3.73;;
1885;SDS011;943;51.568;6.998;2023-06-14T02:28:31;5.43;;;4.20;;
1885;SDS011;943;51.568;6.998;2023-06-14T02:30:59;6.03;;;3.90;;
1885;SDS011;943;51.568;6.998;2023-06-14T02:33:27;5.80;;;4.03;;
1885;SDS011;943;51.568;6.998;2023-06-14T02:35:55;8.90;;;4.20;;
1885;SDS011;943;51.568;6.998;2023-06-14T02:38:23;8.10;;;3.80;;
1885;SDS011;943;51.568;6.998;2023-06-14T02:40:52;6.10;;;3.93;;
1885;SDS011;943;51.568;6.998;2023-06-14T02:43:20;8.87;;;5.00;;
1885;SDS011;943;51.568;6.998;2023-06-14T02:45:48;6.63;;;4.47;;
1885;SDS011;943;51.568;6.998;2023-06-14T02:48:16;6.73;;;4.67;;
1885;SDS011;943;51.568;6.998;2023-06-14T02:50:44;8.07;;;3.87;;
1885;SDS011;943;51.568;6.998;2023-06-14T02:53:12;5.77;;;4.30;;
1885;SDS011;943;51.568;6.998;2023-06-14T02:55:40;6.70;;;4.27;;
1885;SDS011;943;51.568;6.998;2023-06-14T02:58:09;9.33;;;4.20;;
1885;SDS011;943;51.568;6.998;2023-06-14T03:00:37;12.07;;;3.60;;
1885;SDS011;943;51.568;6.998;2023-06-14T03:03:07;7.90;;;3.87;;
1885;SDS011;943;51.568;6.998;2023-06-14T03:05:49;8.43;;;3.90;;
1885;SDS011;943;51.568;6.998;2023-06-14T03:08:22;6.97;;;3.80;;
1885;SDS011;943;51.568;6.998;2023-06-14T03:10:55;5.43;;;4.00;;
1885;SDS011;943;51.568;6.998;2023-06-14T03:13:24;6.20;;;3.70;;
1885;SDS011;943;51.568;6.998;2023-06-14T03:15:54;5.50;;;3.67;;
1885;SDS011;943;51.568;6.998;2023-06-14T03:18:23;5.40;;;3.80;;
1885;SDS011;943;51.568;6.998;2023-06-14T03:20:55;10.23;;;4.83;;
1885;SDS011;943;51.568;6.998;2023-06-14T03:23:28;8.53;;;4.07;;
1885;SDS011;943;51.568;6.998;2023-06-14T03:25:56;6.70;;;4.43;;
1885;SDS011;943;51.568;6.998;2023-06-14T03:28:25;9.00;;;4.27;;
1885;SDS011;943;51.568;6.998;2023-06-14T03:30:54;4.90;;;3.80;;
1885;SDS011;943;51.568;6.998;2023-06-14T03:33:24;8.63;;;3.50;;
1885;SDS011;943;51.568;6.998;2023-06-14T03:35:53;5.57;;;3.60;;
1885;SDS011;943;51.568;6.998;2023-06-14T03:38:21;7.43;;;4.00;;
1885;SDS011;943;51.568;6.998;2023-06-14T03:40:50;5.20;;;3.67;;
1885;SDS011;943;51.568;6.998;2023-06-14T03:43:18;5.33;;;3.50;;
1885;SDS011;943;51.568;6.998;2023-06-14T03:45:48;5.60;;;3.60;;
1885;SDS011;943;51.568;6.998;2023-06-14T03:48:17;6.20;;;3.57;;
1885;SDS011;943;51.568;6.998;2023-06-14T03:50:46;5.23;;;3.40;;
1885;SDS011;943;51.568;6.998;2023-06-14T03:53:14;6.63;;;3.30;;
1885;SDS011;943;51.568;6.998;2023-06-14T03:55:47;7.80;;;3.77;;
1885;SDS011;943;51.568;6.998;2023-06-14T03:58:19;6.17;;;3.70;;
1885;SDS011;943;51.568;6.998;2023-06-14T04:00:47;4.57;;;3.37;;
1885;SDS011;943;51.568;6.998;2023-06-14T04:03:15;5.80;;;4.10;;
1885;SDS011;943;51.568;6.998;2023-06-14T04:05:44;11.53;;;4.07;;
1885;SDS011;943;51.568;6.998;2023-06-14T04:08:17;5.70;;;3.80;;
1885;SDS011;943;51.568;6.998;2023-06-14T04:10:46;5.77;;;3.73;;
1885;SDS011;943;51.568;6.998;2023-06-14T04:13:14;5.20;;;3.57;;
1885;SDS011;943;51.568;6.998;2023-06-14T04:15:42;5.83;;;3.50;;
1885;SDS011;943;51.568;6.998;2023-06-14T04:18:19;7.33;;;4.20;;
1885;SDS011;943;51.568;6.998;2023-06-14T04:20:50;6.13;;;3.30;;
1885;SDS011;943;51.568;6.998;2023-06-14T04:23:19;5.87;;;3.47;;
1885;SDS011;943;51.568;6.998;2023-06-14T04:25:49;4.33;;;3.40;;
1885;SDS011;943;51.568;6.998;2023-06-14T04:28:17;8.10;;;3.50;;
1885;SDS011;943;51.568;6.998;2023-06-14T04:30:46;5.53;;;3.67;;
1885;SDS011;943;51.568;6.998;2023-06-14T04:33:16;7.93;;;3.60;;
1885;SDS011;943;51.568;6.998;2023-06-14T04:35:45;5.93;;;3.83;;
1885;SDS011;943;51.568;6.998;2023-06-14T04:38:18;5.07;;;3.67;;
1885;SDS011;943;51.568;6.998;2023-06-14T04:40:52;4.50;;;3.53;;
1885;SDS011;943;51.568;6.998;2023-06-14T04:43:22;6.53;;;3.80;;
1885;SDS011;943;51.568;6.998;2023-06-14T04:45:55;6.43;;;3.70;;
1885;SDS011;943;51.568;6.998;2023-06-14T04:48:25;13.90;;;4.40;;
1885;SDS011;943;51.568;6.998;2023-06-14T04:50:53;7.03;;;3.53;;
1885;SDS011;943;51.568;6.998;2023-06-14T04:53:22;5.97;;;3.30;;
1885;SDS011;943;51.568;6.998;2023-06-14T04:55:54;5.30;;;3.37;;
1885;SDS011;943;51.568;6.998;2023-06-14T04:58:23;6.60;;;3.63;;
1885;SDS011;943;51.568;6.998;2023-06-14T05:00:51;5.03;;;3.30;;
1885;SDS011;943;51.568;6.998;2023-06-14T05:03:20;6.37;;;4.70;;
1885;SDS011;943;51.568;6.998;2023-06-14T05:05:50;5.10;;;3.43;;
1885;SDS011;943;51.568;6.998;2023-06-14T05:08:20;7.50;;;4.00;;
1885;SDS011;943;51.568;6.998;2023-06-14T05:10:53;7.23;;;3.50;;
1885;SDS011;943;51.568;6.998;2023-06-14T05:13:21;4.40;;;3.33;;
1885;SDS011;943;51.568;6.998;2023-06-14T05:15:49;10.10;;;3.40;;
1885;SDS011;943;51.568;6.998;2023-06-14T05:18:17;7.07;;;3.60;;
1885;SDS011;943;51.568;6.998;2023-06-14T05:20:45;6.53;;;4.17;;
1885;SDS011;943;51.568;6.998;2023-06-14T05:23:13;5.03;;;3.60;;
1885;SDS011;943;51.568;6.998;2023-06-14T05:25:42;9.63;;;3.70;;
1885;SDS011;943;51.568;6.998;2023-06-14T05:28:13;8.93;;;3.70;;
1885;SDS011;943;51.568;6.998;2023-06-14T05:30:42;8.03;;;3.70;;
1885;SDS011;943;51.568;6.998;2023-06-14T05:33:11;6.57;;;3.07;;
1885;SDS011;943;51.568;6.998;2023-06-14T05:35:39;5.03;;;3.47;;
1885;SDS011;943;51.568;6.998;2023-06-14T05:38:07;6.60;;;3.40;;
1885;SDS011;943;51.568;6.998;2023-06-14T05:40:35;5.90;;;4.00;;
1885;SDS011;943;51.568;6.998;2023-06-14T05:43:03;6.40;;;3.17;;
1885;SDS011;943;51.568;6.998;2023-06-14T05:45:32;4.80;;;3.20;;
1885;SDS011;943;51.568;6.998;2023-06-14T05:48:00;4.50;;;3.50;;
1885;SDS011;943;51.568;6.998;2023-06-14T05:50:30;6.03;;;3.40;;
1885;SDS011;943;51.568;6.998;2023-06-14T05:53:00;5.93;;;3.03;;
1885;SDS011;943;51.568;6.998;2023-06-14T05:55:28;4.90;;;3.30;;
1885;SDS011;943;51.568;6.998;2023-06-14T05:57:56;7.20;;;3.70;;
1885;SDS011;943;51.568;6.998;2023-06-14T06:00:24;4.03;;;3.13;;
1885;SDS011;943;51.568;6.998;2023-06-14T06:02:52;6.70;;;3.67;;
1885;SDS011;943;51.568;6.998;2023-06-14T06:05:20;5.90;;;3.50;;
1885;SDS011;943;51.568;6.998;2023-06-14T06:07:50;5.07;;;3.40;;
1885;SDS011;943;51.568;6.998;2023-06-14T06:10:19;4.70;;;3.10;;
1885;SDS011;943;51.568;6.998;2023-06-14T06:12:47;8.07;;;3.80;;
1885;SDS011;943;51.568;6.998;2023-06-14T06:15:15;6.67;;;3.57;;
1885;SDS011;943;51.568;6.998;2023-06-14T06:17:44;7.90;;;3.00;;
1885;SDS011;943;51.568;6.998;2023-06-14T06:20:22;7.17;;;2.93;;
1885;SDS011;943;51.568;6.998;2023-06-14T06:22:56;5.70;;;2.60;;
1885;SDS011;943;51.568;6.998;2023-06-14T06:25:25;6.17;;;3.10;;
1885;SDS011;943;51.568;6.998;2023-06-14T06:27:54;6.60;;;3.27;;
1885;SDS011;943;51.568;6.998;2023-06-14T06:30:23;5.90;;;2.60;;
1885;SDS011;943;51.568;6.998;2023-06-14T06:32:52;6.03;;;2.93;;
1885;SDS011;943;51.568;6.998;2023-06-14T06:35:22;3.40;;;2.33;;
1885;SDS011;943;51.568;6.998;2023-06-14T06:37:51;6.70;;;2.70;;
1885;SDS011;943;51.568;6.998;2023-06-14T06:40:20;5.70;;;2.47;;
1885;SDS011;943;51.568;6.998;2023-06-14T06:42:49;5.13;;;2.60;;
1885;SDS011;943;51.568;6.998;2023-06-14T06:45:18;6.80;;;2.90;;
1885;SDS011;943;51.568;6.998;2023-06-14T06:47:50;4.70;;;2.60;;
1885;SDS011;943;51.568;6.998;2023-06-14T06:50:18;8.00;;;2.93;;
1885;SDS011;943;51.568;6.998;2023-06-14T06:52:46;8.17;;;2.60;;
1885;SDS011;943;51.568;6.998;2023-06-14T06:55:14;6.13;;;2.80;;
1885;SDS011;943;51.568;6.998;2023-06-14T06:57:43;3.97;;;2.63;;
1885;SDS011;943;51.568;6.998;2023-06-14T07:00:12;5.00;;;3.23;;
1885;SDS011;943;51.568;6.998;2023-06-14T07:02:41;6.40;;;2.60;;
1885;SDS011;943;51.568;6.998;2023-06-14T07:05:10;5.10;;;2.97;;
1885;SDS011;943;51.568;6.998;2023-06-14T07:07:38;4.30;;;2.40;;
1885;SDS011;943;51.568;6.998;2023-06-14T07:10:06;5.90;;;3.07;;
1885;SDS011;943;51.568;6.998;2023-06-14T07:12:34;8.10;;;3.40;;
1885;SDS011;943;51.568;6.998;2023-06-14T07:15:06;3.70;;;2.60;;
1885;SDS011;943;51.568;6.998;2023-06-14T07:17:35;3.07;;;2.47;;
1885;SDS011;943;51.568;6.998;2023-06-14T07:20:04;3.20;;;2.00;;
1885;SDS011;943;51.568;6.998;2023-06-14T07:22:41;4.50;;;2.73;;
1885;SDS011;943;51.568;6.998;2023-06-14T07:25:10;5.77;;;2.87;;
1885;SDS011;943;51.568;6.998;2023-06-14T07:27:42;3.73;;;2.17;;
1885;SDS011;943;51.568;6.998;2023-06-14T07:30:13;4.43;;;2.40;;
1885;SDS011;943;51.568;6.998;2023-06-14T07:32:41;7.17;;;2.43;;
1885;SDS011;943;51.568;6.998;2023-06-14T07:35:09;5.90;;;3.00;;
1885;SDS011;943;51.568;6.998;2023-06-14T07:37:37;4.83;;;2.43;;
1885;SDS011;943;51.568;6.998;2023-06-14T07:40:05;4.20;;;2.33;;
1885;SDS011;943;51.568;6.998;2023-06-14T07:42:35;7.10;;;3.60;;
1885;SDS011;943;51.568;6.998;2023-06-14T07:45:05;4.60;;;2.43;;
1885;SDS011;943;51.568;6.998;2023-06-14T07:47:34;5.87;;;3.10;;
1885;SDS011;943;51.568;6.998;2023-06-14T07:50:03;3.50;;;2.60;;
1885;SDS011;943;51.568;6.998;2023-06-14T07:52:34;4.47;;;2.53;;
1885;SDS011;943;51.568;6.998;2023-06-14T07:55:02;3.90;;;2.67;;
1885;SDS011;943;51.568;6.998;2023-06-14T07:57:32;6.30;;;3.03;;
1885;SDS011;943;51.568;6.998;2023-06-14T08:00:00;5.03;;;3.33;;
1885;SDS011;943;51.568;6.998;2023-06-14T08:02:37;4.20;;;2.77;;
1885;SDS011;943;51.568;6.998;2023-06-14T08:05:06;3.83;;;2.60;;
1885;SDS011;943;51.568;6.998;2023-06-14T08:07:39;5.37;;;2.80;;
1885;SDS011;943;51.568;6.998;2023-06-14T08:10:09;2.90;;;2.23;;
1885;SDS011;943;51.568;6.998;2023-06-14T08:12:37;4.00;;;2.90;;
1885;SDS011;943;51.568;6.998;2023-06-14T08:15:06;3.00;;;2.17;;
1885;SDS011;943;51.568;6.998;2023-06-14T08:17:42;9.40;;;2.50;;
1885;SDS011;943;51.568;6.998;2023-06-14T08:20:12;3.97;;;2.60;;
1885;SDS011;943;51.568;6.998;2023-06-14T08:22:44;3.70;;;2.70;;
1885;SDS011;943;51.568;6.998;2023-06-14T08:25:15;4.20;;;2.23;;
1885;SDS011;943;51.568;6.998;2023-06-14T08:27:45;3.00;;;2.50;;
1885;SDS011;943;51.568;6.998;2023-06-14T08:30:13;4.70;;;2.20;;
1885;SDS011;943;51.568;6.998;2023-06-14T08:32:44;3.77;;;2.47;;
1885;SDS011;943;51.568;6.998;2023-06-14T08:35:19;4.80;;;3.20;;
1885;SDS011;943;51.568;6.998;2023-06-14T08:37:48;4.37;;;2.60;;
1885;SDS011;943;51.568;6.998;2023-06-14T08:40:21;4.50;;;2.73;;
1885;SDS011;943;51.568;6.998;2023-06-14T08:42:52;3.20;;;2.20;;
1885;SDS011;943;51.568;6.998;2023-06-14T08:45:23;5.60;;;2.37;;
1885;SDS011;943;51.568;6.998;2023-06-14T08:47:56;6.73;;;2.13;;
1885;SDS011;943;51.568;6.998;2023-06-14T08:50:27;3.27;;;2.30;;
1885;SDS011;943;51.568;6.998;2023-06-14T08:52:59;2.50;;;2.00;;
1885;SDS011;943;51.568;6.998;2023-06-14T08:55:31;2.97;;;1.90;;
1885;SDS011;943;51.568;6.998;2023-06-14T08:58:04;3.07;;;2.13;;
1885;SDS011;943;51.568;6.998;2023-06-14T09:00:33;2.47;;;1.70;;
1885;SDS011;943;51.568;6.998;2023-06-14T09:03:04;3.67;;;1.90;;
1885;SDS011;943;51.568;6.998;2023-06-14T09:05:43;3.40;;;2.17;;
1885;SDS011;943;51.568;6.998;2023-06-14T09:08:13;2.90;;;1.70;;
1885;SDS011;943;51.568;6.998;2023-06-14T09:10:43;5.20;;;2.00;;
1885;SDS011;943;51.568;6.998;2023-06-14T09:13:17;3.73;;;1.80;;
1885;SDS011;943;51.568;6.998;2023-06-14T09:15:46;5.90;;;2.63;;
1885;SDS011;943;51.568;6.998;2023-06-14T09:18:14;2.83;;;1.70;;
1885;SDS011;943;51.568;6.998;2023-06-14T09:20:43;3.13;;;1.47;;
1885;SDS011;943;51.568;6.998;2023-06-14T09:23:16;4.80;;;1.90;;
1885;SDS011;943;51.568;6.998;2023-06-14T09:25:49;2.90;;;1.70;;
1885;SDS011;943;51.568;6.998;2023-06-14T09:28:20;2.87;;;1.73;;
1885;SDS011;943;51.568;6.998;2023-06-14T09:30:55;4.07;;;1.70;;
1885;SDS011;943;51.568;6.998;2023-06-14T09:33:26;4.20;;;1.50;;
1885;SDS011;943;51.568;6.998;2023-06-14T09:35:55;4.03;;;1.57;;
1885;SDS011;943;51.568;6.998;2023-06-14T09:38:24;2.00;;;1.10;;
1885;SDS011;943;51.568;6.998;2023-06-14T09:40:57;2.57;;;1.30;;
1885;SDS011;943;51.568;6.998;2023-06-14T09:43:30;2.70;;;1.60;;
1885;SDS011;943;51.568;6.998;2023-06-14T09:46:05;2.80;;;1.50;;
1885;SDS011;943;51.568;6.998;2023-06-14T09:48:37;2.87;;;1.23;;
1885;SDS011;943;51.568;6.998;2023-06-14T09:51:10;4.00;;;1.90;;
1885;SDS011;943;51.568;6.998;2023-06-14T09:53:46;2.33;;;1.50;;
1885;SDS011;943;51.568;6.998;2023-06-14T09:56:25;4.23;;;1.47;;
1885;SDS011;943;51.568;6.998;2023-06-14T09:59:13;5.37;;;1.43;;
1885;SDS011;943;51.568;6.998;2023-06-14T10:01:58;2.60;;;1.10;;
1885;SDS011;943;51.568;6.998;2023-06-14T10:04:51;2.23;;;1.17;;
1885;SDS011;943;51.568;6.998;2023-06-14T10:07:39;2.50;;;1.30;;
1885;SDS011;943;51.568;6.998;2023-06-14T10:10:34;3.30;;;1.40;;
1885;SDS011;943;51.568;6.998;2023-06-14T10:13:05;2.53;;;1.23;;
1885;SDS011;943;51.568;6.998;2023-06-14T10:21:49;3.60;;;1.50;;
1885;SDS011;943;51.568;6.998;2023-06-14T10:24:49;3.00;;;1.10;;
1885;SDS011;943;51.568;6.998;2023-06-14T10:27:18;2.30;;;1.23;;
1885;SDS011;943;51.568;6.998;2023-06-14T10:32:24;2.07;;;1.10;;
1885;SDS011;943;51.568;6.998;2023-06-14T10:34:58;2.30;;;1.37;;
1885;SDS011;943;51.568;6.998;2023-06-14T10:37:33;3.63;;;1.30;;
1885;SDS011;943;51.568;6.998;2023-06-14T10:40:03;4.37;;;1.63;;
1885;SDS011;943;51.568;6.998;2023-06-14T10:42:35;2.33;;;1.60;;
1885;SDS011;943;51.568;6.998;2023-06-14T10:45:03;2.50;;;1.47;;
1885;SDS011;943;51.568;6.998;2023-06-14T10:47:36;4.43;;;1.23;;
1885;SDS011;943;51.568;6.998;2023-06-14T10:52:40;2.37;;;1.10;;
1885;SDS011;943;51.568;6.998;2023-06-14T10:55:16;2.23;;;1.57;;
1885;SDS011;943;51.568;6.998;2023-06-14T10:57:47;2.40;;;1.43;;
1885;SDS011;943;51.568;6.998;2023-06-14T11:00:26;5.40;;;1.60;;
1885;SDS011;943;51.568;6.998;2023-06-14T11:06:21;5.80;;;1.57;;
1885;SDS011;943;51.568;6.998;2023-06-14T11:09:09;2.70;;;1.43;;
1885;SDS011;943;51.568;6.998;2023-06-14T11:12:07;2.73;;;1.50;;
1885;SDS011;943;51.568;6.998;2023-06-14T11:14:40;5.90;;;1.57;;
1885;SDS011;943;51.568;6.998;2023-06-14T11:17:09;2.70;;;2.00;;
1885;SDS011;943;51.568;6.998;2023-06-14T11:19:40;3.83;;;1.70;;
1885;SDS011;943;51.568;6.998;2023-06-14T11:22:08;2.80;;;1.80;;
1885;SDS011;943;51.568;6.998;2023-06-14T11:24:36;2.57;;;1.70;;
1885;SDS011;943;51.568;6.998;2023-06-14T11:27:04;4.00;;;1.57;;
1885;SDS011;943;51.568;6.998;2023-06-14T11:29:33;4.33;;;1.33;;
1885;SDS011;943;51.568;6.998;2023-06-14T11:32:01;2.37;;;1.63;;
1885;SDS011;943;51.568;6.998;2023-06-14T11:34:33;4.97;;;1.67;;
1885;SDS011;943;51.568;6.998;2023-06-14T11:37:01;2.67;;;1.40;;
1885;SDS011;943;51.568;6.998;2023-06-14T11:39:31;2.40;;;1.30;;
1885;SDS011;943;51.568;6.998;2023-06-14T11:41:59;3.27;;;1.90;;
1885;SDS011;943;51.568;6.998;2023-06-14T11:44:31;3.20;;;1.67;;
1885;SDS011;943;51.568;6.998;2023-06-14T11:47:03;3.83;;;1.40;;
1885;SDS011;943;51.568;6.998;2023-06-14T11:49:35;4.23;;;1.70;;
1885;SDS011;943;51.568;6.998;2023-06-14T11:52:04;3.60;;;1.60;;
1885;SDS011;943;51.568;6.998;2023-06-14T11:54:34;2.93;;;1.90;;
1885;SDS011;943;51.568;6.998;2023-06-14T11:57:03;3.63;;;1.80;;
1885;SDS011;943;51.568;6.998;2023-06-14T11:59:40;8.43;;;2.13;;
1885;SDS011;943;51.568;6.998;2023-06-14T12:02:14;3.40;;;1.43;;
1885;SDS011;943;51.568;6.998;2023-06-14T12:04:50;3.53;;;1.87;;
1885;SDS011;943;51.568;6.998;2023-06-14T12:07:19;7.10;;;1.93;;
1885;SDS011;943;51.568;6.998;2023-06-14T12:12:26;3.13;;;1.90;;
1885;SDS011;943;51.568;6.998;2023-06-14T12:14:55;3.73;;;1.87;;
1885;SDS011;943;51.568;6.998;2023-06-14T12:17:23;4.60;;;2.27;;
1885;SDS011;943;51.568;6.998;2023-06-14T12:19:52;4.53;;;2.27;;
1885;SDS011;943;51.568;6.998;2023-06-14T12:22:19;3.10;;;2.00;;
1885;SDS011;943;51.568;6.998;2023-06-14T12:24:47;2.63;;;1.80;;
1885;SDS011;943;51.568;6.998;2023-06-14T12:27:16;4.63;;;2.17;;
1885;SDS011;943;51.568;6.998;2023-06-14T12:29:45;2.90;;;2.30;;
1885;SDS011;943;51.568;6.998;2023-06-14T12:32:13;6.67;;;2.60;;
1885;SDS011;943;51.568;6.998;2023-06-14T12:34:41;3.43;;;2.40;;
1885;SDS011;943;51.568;6.998;2023-06-14T12:37:09;3.23;;;1.60;;
1885;SDS011;943;51.568;6.998;2023-06-14T12:39:37;3.87;;;1.83;;
1885;SDS011;943;51.568;6.998;2023-06-14T12:42:06;4.67;;;2.70;;
1885;SDS011;943;51.568;6.998;2023-06-14T12:44:34;7.17;;;2.30;;
1885;SDS011;943;51.568;6.998;2023-06-14T12:47:07;4.63;;;2.10;;
1885;SDS011;943;51.568;6.998;2023-06-14T12:49:35;3.10;;;2.23;;
1885;SDS011;943;51.568;6.998;2023-06-14T12:52:05;4.30;;;2.07;;
1885;SDS011;943;51.568;6.998;2023-06-14T12:54:34;3.70;;;2.30;;
1885;SDS011;943;51.568;6.998;2023-06-14T12:57:07;4.63;;;2.50;;
1885;SDS011;943;51.568;6.998;2023-06-14T12:59:36;4.73;;;2.20;;
1885;SDS011;943;51.568;6.998;2023-06-14T13:02:16;3.10;;;2.30;;
1885;SDS011;943;51.568;6.998;2023-06-14T13:04:51;5.73;;;2.67;;
1885;SDS011;943;51.568;6.998;2023-06-14T13:07:19;3.83;;;2.40;;
1885;SDS011;943;51.568;6.998;2023-06-14T13:09:48;4.53;;;2.13;;
1885;SDS011;943;51.568;6.998;2023-06-14T13:12:16;3.40;;;2.13;;
1885;SDS011;943;51.568;6.998;2023-06-14T13:14:43;8.97;;;1.93;;
1885;SDS011;943;51.568;6.998;2023-06-14T13:17:11;3.37;;;2.10;;
1885;SDS011;943;51.568;6.998;2023-06-14T13:19:39;3.37;;;2.00;;
1885;SDS011;943;51.568;6.998;2023-06-14T13:22:09;4.83;;;2.20;;
1885;SDS011;943;51.568;6.998;2023-06-14T13:24:37;4.10;;;2.20;;
1885;SDS011;943;51.568;6.998;2023-06-14T13:27:05;2.70;;;1.70;;
1885;SDS011;943;51.568;6.998;2023-06-14T13:29:33;3.17;;;1.90;;
1885;SDS011;943;51.568;6.998;2023-06-14T13:32:03;4.40;;;1.97;;
1885;SDS011;943;51.568;6.998;2023-06-14T13:34:32;4.57;;;2.20;;
1885;SDS011;943;51.568;6.998;2023-06-14T13:37:00;3.23;;;2.53;;
1885;SDS011;943;51.568;6.998;2023-06-14T13:39:28;6.83;;;2.40;;
1885;SDS011;943;51.568;6.998;2023-06-14T13:41:56;3.67;;;1.80;;
1885;SDS011;943;51.568;6.998;2023-06-14T13:44:24;3.30;;;2.33;;
1885;SDS011;943;51.568;6.998;2023-06-14T13:46:52;3.53;;;2.50;;
1885;SDS011;943;51.568;6.998;2023-06-14T13:49:20;3.47;;;2.83;;
1885;SDS011;943;51.568;6.998;2023-06-14T13:51:48;4.73;;;2.40;;
1885;SDS011;943;51.568;6.998;2023-06-14T13:54:18;6.23;;;2.47;;
1885;SDS011;943;51.568;6.998;2023-06-14T13:56:48;3.53;;;2.10;;
1885;SDS011;943;51.568;6.998;2023-06-14T13:59:17;3.87;;;2.97;;
1885;SDS011;943;51.568;6.998;2023-06-14T14:01:45;6.00;;;2.50;;
1885;SDS011;943;51.568;6.998;2023-06-14T14:04:14;2.97;;;2.30;;
1885;SDS011;943;51.568;6.998;2023-06-14T14:06:42;4.67;;;3.17;;
1885;SDS011;943;51.568;6.998;2023-06-14T14:09:12;4.93;;;2.33;;
1885;SDS011;943;51.568;6.998;2023-06-14T14:11:41;4.90;;;2.30;;
1885;SDS011;943;51.568;6.998;2023-06-14T14:14:09;3.97;;;2.70;;
1885;SDS011;943;51.568;6.998;2023-06-14T14:16:37;4.87;;;2.87;;
1885;SDS011;943;51.568;6.998;2023-06-14T14:19:05;7.63;;;3.40;;
1885;SDS011;943;51.568;6.998;2023-06-14T14:21:34;3.10;;;2.77;;
1885;SDS011;943;51.568;6.998;2023-06-14T14:24:02;3.70;;;2.60;;
1885;SDS011;943;51.568;6.998;2023-06-14T14:26:31;3.20;;;2.80;;
1885;SDS011;943;51.568;6.998;2023-06-14T14:28:59;4.80;;;2.43;;
1885;SDS011;943;51.568;6.998;2023-06-14T14:31:29;3.37;;;2.30;;
1885;SDS011;943;51.568;6.998;2023-06-14T14:33:58;4.03;;;2.90;;
1885;SDS011;943;51.568;6.998;2023-06-14T14:36:25;3.73;;;2.80;;
1885;SDS011;943;51.568;6.998;2023-06-14T14:38:53;3.10;;;2.63;;
1885;SDS011;943;51.568;6.998;2023-06-14T14:41:21;6.13;;;2.87;;
1885;SDS011;943;51.568;6.998;2023-06-14T14:43:50;3.07;;;2.70;;
1885;SDS011;943;51.568;6.998;2023-06-14T14:46:18;3.23;;;2.73;;
1885;SDS011;943;51.568;6.998;2023-06-14T14:48:46;7.37;;;3.13;;
1885;SDS011;943;51.568;6.998;2023-06-14T14:51:14;6.13;;;2.77;;
1885;SDS011;943;51.568;6.998;2023-06-14T14:53:41;4.50;;;3.07;;
1885;SDS011;943;51.568;6.998;2023-06-14T14:56:09;4.27;;;2.93;;
1885;SDS011;943;51.568;6.998;2023-06-14T14:58:38;5.00;;;2.50;;
1885;SDS011;943;51.568;6.998;2023-06-14T15:01:06;4.60;;;2.27;;
1885;SDS011;943;51.568;6.998;2023-06-14T15:03:34;6.50;;;2.53;;
1885;SDS011;943;51.568;6.998;2023-06-14T15:06:22;3.83;;;2.70;;
1885;SDS011;943;51.568;6.998;2023-06-14T15:08:49;8.37;;;4.83;;
1885;SDS011;943;51.568;6.998;2023-06-14T15:11:18;4.07;;;2.43;;
1885;SDS011;943;51.568;6.998;2023-06-14T15:13:47;4.00;;;2.57;;
1885;SDS011;943;51.568;6.998;2023-06-14T15:16:15;4.30;;;2.47;;
1885;SDS011;943;51.568;6.998;2023-06-14T15:18:43;3.97;;;2.20;;
1885;SDS011;943;51.568;6.998;2023-06-14T15:21:12;6.83;;;2.73;;
1885;SDS011;943;51.568;6.998;2023-06-14T15:23:40;5.90;;;3.07;;
1885;SDS011;943;51.568;6.998;2023-06-14T15:26:10;5.57;;;2.90;;
1885;SDS011;943;51.568;6.998;2023-06-14T15:28:38;3.30;;;2.87;;
1885;SDS011;943;51.568;6.998;2023-06-14T15:31:07;3.67;;;2.80;;
1885;SDS011;943;51.568;6.998;2023-06-14T15:33:35;8.20;;;2.50;;
1885;SDS011;943;51.568;6.998;2023-06-14T15:36:03;3.60;;;2.50;;
1885;SDS011;943;51.568;6.998;2023-06-14T15:38:36;4.93;;;2.60;;
1885;SDS011;943;51.568;6.998;2023-06-14T15:41:04;5.33;;;3.03;;
1885;SDS011;943;51.568;6.998;2023-06-14T15:43:33;6.83;;;2.80;;
1885;SDS011;943;51.568;6.998;2023-06-14T15:46:01;3.33;;;2.50;;
1885;SDS011;943;51.568;6.998;2023-06-14T15:48:29;5.47;;;2.80;;
1885;SDS011;943;51.568;6.998;2023-06-14T15:50:57;3.60;;;3.07;;
1885;SDS011;943;51.568;6.998;2023-06-14T15:53:26;7.53;;;2.70;;
1885;SDS011;943;51.568;6.998;2023-06-14T15:55:55;3.33;;;2.60;;
1885;SDS011;943;51.568;6.998;2023-06-14T15:58:23;3.37;;;2.30;;
1885;SDS011;943;51.568;6.998;2023-06-14T16:00:51;4.30;;;2.20;;
1885;SDS011;943;51.568;6.998;2023-06-14T16:03:19;3.43;;;2.10;;
1885;SDS011;943;51.568;6.998;2023-06-14T16:05:47;4.10;;;2.57;;
1885;SDS011;943;51.568;6.998;2023-06-14T16:08:15;3.03;;;2.70;;
1885;SDS011;943;51.568;6.998;2023-06-14T16:11:03;4.20;;;2.80;;
1885;SDS011;943;51.568;6.998;2023-06-14T16:13:31;3.63;;;2.87;;